createdAt,value
2023-01-19T00:01:29.711Z,72.88
2023-01-19T00:04:12.591Z,72.93
2023-01-19T00:06:56.810Z,73.07
2023-01-19T00:09:46.189Z,72.97
2023-01-19T00:12:29.033Z,72.96
2023-01-19T00:15:13.015Z,73.16
2023-01-19T00:17:56.089Z,73.19
2023-01-19T00:20:39.199Z,73.33
2023-01-19T00:23:23.546Z,73.54
2023-01-19T00:26:06.600Z,73.29
2023-01-19T00:28:50.330Z,73.42
2023-01-19T00:31:34.068Z,73.61
2023-01-19T00:34:17.168Z,73.52
2023-01-19T00:37:02.011Z,73.41
2023-01-19T00:39:46.192Z,73.45
2023-01-19T00:42:45.325Z,73.58
2023-01-19T00:45:28.297Z,73.66
2023-01-19T00:48:11.135Z,73.91
2023-01-19T00:50:53.930Z,73.84
2023-01-19T00:53:36.753Z,73.92
2023-01-19T00:56:21.011Z,74.14
2023-01-19T00:59:05.042Z,74.19
2023-01-19T01:01:47.997Z,74.08
2023-01-19T01:04:31.079Z,73.81
2023-01-19T01:07:13.881Z,73.97
2023-01-19T01:09:57.579Z,73.99
2023-01-19T01:12:42.278Z,73.48
2023-01-19T01:15:39.196Z,73.65
2023-01-19T01:18:23.020Z,73.78
2023-01-19T01:21:07.501Z,73.50
2023-01-19T01:23:50.788Z,73.63
2023-01-19T01:26:33.622Z,73.47
2023-01-19T01:29:17.968Z,73.49
2023-01-19T01:32:00.746Z,73.89
2023-01-19T01:34:44.127Z,73.66
2023-01-19T01:37:27.058Z,73.65
2023-01-19T01:40:13.282Z,73.50
2023-01-19T01:42:56.139Z,73.76
2023-01-19T01:45:41.748Z,73.75
2023-01-19T01:48:28.821Z,73.90
2023-01-19T01:51:25.380Z,73.94
2023-01-19T01:54:14.057Z,73.78
2023-01-19T01:57:01.870Z,73.83
2023-01-19T01:59:48.543Z,73.80
2023-01-19T02:02:51.638Z,73.72
2023-01-19T02:05:36.314Z,73.67
2023-01-19T02:08:40.380Z,73.59
2023-01-19T02:11:40.966Z,73.79
2023-01-19T02:14:23.814Z,73.44
2023-01-19T02:17:07.098Z,73.76
2023-01-19T02:19:51.350Z,73.53
2023-01-19T02:22:39.674Z,73.53
2023-01-19T02:25:25.239Z,73.49
2023-01-19T02:28:08.490Z,73.46
2023-01-19T02:30:51.390Z,73.58
2023-01-19T02:33:34.768Z,73.53
2023-01-19T02:36:20.521Z,73.43
2023-01-19T02:39:05.761Z,73.55
2023-01-19T02:41:54.312Z,73.27
2023-01-19T02:44:38.133Z,73.34
2023-01-19T02:47:20.940Z,73.24
2023-01-19T02:50:03.757Z,73.13
2023-01-19T02:52:46.656Z,73.12
2023-01-19T02:55:32.798Z,72.93
2023-01-19T02:58:22.979Z,73.25
2023-01-19T03:01:15.359Z,73.15
2023-01-19T03:04:08.711Z,73.18
2023-01-19T03:06:55.063Z,73.34
2023-01-19T03:09:46.310Z,73.75
2023-01-19T03:12:38.009Z,73.56
2023-01-19T03:15:27.241Z,73.72
2023-01-19T03:18:14.725Z,73.53
2023-01-19T03:21:02.912Z,73.74
2023-01-19T03:23:47.516Z,73.97
2023-01-19T03:26:35.943Z,73.87
2023-01-19T03:29:22.324Z,74.46
2023-01-19T03:32:12.056Z,74.14
2023-01-19T03:34:57.388Z,74.29
2023-01-19T03:37:44.087Z,74.30
2023-01-19T03:40:30.215Z,74.18
2023-01-19T03:43:16.556Z,74.20
2023-01-19T03:46:00.585Z,73.97
2023-01-19T03:48:45.683Z,74.06
2023-01-19T03:51:28.876Z,73.95
2023-01-19T03:54:12.121Z,73.94
2023-01-19T03:56:55.185Z,74.26
2023-01-19T03:59:37.966Z,74.01
2023-01-19T04:02:20.784Z,73.93
2023-01-19T04:05:05.273Z,73.99
2023-01-19T04:07:49.060Z,73.79
2023-01-19T04:10:31.991Z,73.30
2023-01-19T04:13:15.073Z,73.41
2023-01-19T04:16:01.145Z,72.84
2023-01-19T04:18:43.953Z,72.53
2023-01-19T04:21:28.205Z,72.61
2023-01-19T04:24:11.654Z,72.62
2023-01-19T04:26:54.484Z,72.58
2023-01-19T04:29:37.266Z,72.15
2023-01-19T04:32:20.159Z,72.59
2023-01-19T04:35:03.058Z,72.26
2023-01-19T04:37:47.250Z,72.40
2023-01-19T04:40:30.066Z,72.24
2023-01-19T04:43:14.238Z,72.39
2023-01-19T04:45:57.071Z,72.40
2023-01-19T04:48:41.314Z,72.27
2023-01-19T04:51:24.997Z,71.85
2023-01-19T04:54:09.906Z,72.05
2023-01-19T04:56:52.774Z,72.14
2023-01-19T04:59:35.579Z,72.40
2023-01-19T05:02:18.749Z,72.23
2023-01-19T05:05:01.761Z,72.17
2023-01-19T05:07:44.984Z,72.05
2023-01-19T05:10:29.503Z,71.84
2023-01-19T05:13:12.360Z,71.86
2023-01-19T05:15:55.221Z,71.75
2023-01-19T05:18:38.123Z,71.43
2023-01-19T05:21:21.046Z,71.16
2023-01-19T05:24:04.097Z,70.77
2023-01-19T05:26:48.287Z,70.93
2023-01-19T05:29:31.099Z,71.22
2023-01-19T05:32:14.230Z,71.18
2023-01-19T05:34:57.039Z,71.17
2023-01-19T05:37:39.973Z,70.79
2023-01-19T05:40:23.220Z,70.96
2023-01-19T05:43:07.405Z,70.94
2023-01-19T05:45:50.219Z,70.56
2023-01-19T05:48:33.064Z,70.64
2023-01-19T05:51:16.243Z,70.67
2023-01-19T05:53:59.030Z,70.65
2023-01-19T05:56:42.426Z,70.38
2023-01-19T05:59:26.595Z,70.41
2023-01-19T06:02:09.743Z,70.60
2023-01-19T06:04:52.571Z,70.35
2023-01-19T06:07:35.360Z,70.49
2023-01-19T06:10:18.354Z,70.32
2023-01-19T06:13:01.501Z,70.39
2023-01-19T06:15:45.909Z,70.63
2023-01-19T06:18:28.881Z,70.72
2023-01-19T06:21:14.247Z,70.89
2023-01-19T06:23:57.116Z,70.64
2023-01-19T06:26:39.868Z,70.64
2023-01-19T06:29:23.129Z,70.75
2023-01-19T06:32:07.746Z,70.80
2023-01-19T06:34:52.198Z,70.58
2023-01-19T06:37:36.381Z,70.32
2023-01-19T06:40:19.376Z,70.63
2023-01-19T06:43:02.556Z,70.45
2023-01-19T06:45:46.738Z,70.37
2023-01-19T06:48:31.201Z,70.63
2023-01-19T06:51:14.048Z,70.81
2023-01-19T06:53:56.873Z,70.74
2023-01-19T06:56:39.742Z,70.72
2023-01-19T06:59:23.178Z,70.73
2023-01-19T07:02:27.272Z,70.66
2023-01-19T07:05:14.611Z,70.66
2023-01-19T07:07:58.338Z,70.64
2023-01-19T07:11:24.817Z,70.69
2023-01-19T07:13:44.740Z,70.34
2023-01-19T07:16:27.651Z,70.60
2023-01-19T07:19:10.950Z,70.78
2023-01-19T07:21:55.100Z,70.67
2023-01-19T07:24:38.422Z,70.92
2023-01-19T07:27:21.226Z,70.67
2023-01-19T07:30:04.649Z,70.76
2023-01-19T07:32:48.575Z,70.66
2023-01-19T07:35:31.948Z,70.70
2023-01-19T07:38:16.531Z,70.49
2023-01-19T07:41:02.548Z,70.42
2023-01-19T07:43:45.453Z,70.22
2023-01-19T07:46:28.249Z,70.18
2023-01-19T07:49:11.655Z,70.17
2023-01-19T07:51:56.262Z,69.77
2023-01-19T07:54:40.639Z,69.93
2023-01-19T07:57:24.117Z,70.26
2023-01-19T08:00:08.877Z,70.38
2023-01-19T08:03:00.840Z,70.56
2023-01-19T08:05:44.240Z,70.59
2023-01-19T08:08:27.138Z,70.49
2023-01-19T08:11:11.477Z,70.40
2023-01-19T08:13:54.283Z,70.41
2023-01-19T08:16:37.080Z,70.20
2023-01-19T08:19:20.329Z,70.27
2023-01-19T08:22:03.752Z,69.96
2023-01-19T08:24:47.923Z,70.04
2023-01-19T08:27:33.101Z,69.91
2023-01-19T08:30:16.236Z,69.76
2023-01-19T08:33:04.215Z,69.60
2023-01-19T08:35:49.961Z,69.74
2023-01-19T08:38:33.225Z,69.57
2023-01-19T08:41:17.009Z,69.42
2023-01-19T08:44:01.204Z,69.26
2023-01-19T08:46:44.020Z,69.09
2023-01-19T08:49:26.825Z,69.37
2023-01-19T08:52:09.669Z,69.31
2023-01-19T08:54:52.478Z,69.37
2023-01-19T08:57:35.268Z,69.58
2023-01-19T09:00:20.632Z,68.96
2023-01-19T09:03:04.171Z,68.86
2023-01-19T09:05:47.406Z,68.64
2023-01-19T09:08:30.203Z,68.69
2023-01-19T09:11:14.664Z,68.58
2023-01-19T09:13:57.356Z,67.63
2023-01-19T09:16:41.525Z,67.93
2023-01-19T09:19:24.329Z,67.87
2023-01-19T09:22:07.413Z,67.80
2023-01-19T09:24:50.193Z,67.41
2023-01-19T09:27:33.010Z,67.04
2023-01-19T09:30:17.171Z,66.87
2023-01-19T09:33:06.354Z,66.62
2023-01-19T09:35:51.843Z,66.47
2023-01-19T09:38:34.697Z,66.34
2023-01-19T09:41:22.333Z,66.09
2023-01-19T09:44:06.009Z,65.84
2023-01-19T09:46:48.906Z,65.73
2023-01-19T09:49:37.727Z,65.71
2023-01-19T09:52:22.415Z,65.98
2023-01-19T09:55:05.544Z,65.45
2023-01-19T09:57:48.345Z,65.45
2023-01-19T10:00:32.720Z,65.30
2023-01-19T10:03:16.470Z,64.49
2023-01-19T10:06:05.577Z,64.87
2023-01-19T10:08:56.692Z,64.34
2023-01-19T10:11:53.715Z,64.00
2023-01-19T10:14:44.002Z,64.24
2023-01-19T10:17:37.648Z,63.63
2023-01-19T10:20:28.919Z,63.10
2023-01-19T10:23:37.541Z,63.37
2023-01-19T10:26:25.411Z,63.83
2023-01-19T10:29:14.575Z,63.65
2023-01-19T10:32:05.799Z,63.71
2023-01-19T10:34:49.673Z,63.92
2023-01-19T10:37:35.243Z,63.32
2023-01-19T10:40:33.071Z,63.22
2023-01-19T10:43:37.765Z,62.64
2023-01-19T10:46:23.409Z,62.87
2023-01-19T10:49:07.002Z,62.11
2023-01-19T10:51:50.071Z,62.62
2023-01-19T10:54:36.308Z,62.39
2023-01-19T10:57:29.422Z,61.74
2023-01-19T11:00:31.352Z,61.84
2023-01-19T11:03:24.305Z,61.88
2023-01-19T11:06:22.187Z,62.25
2023-01-19T11:09:16.219Z,61.26
2023-01-19T11:11:59.069Z,60.28
2023-01-19T11:14:43.364Z,61.28
2023-01-19T11:17:27.178Z,59.21
2023-01-19T11:20:20.842Z,59.91
2023-01-19T11:23:09.297Z,61.37
2023-01-19T11:25:54.081Z,61.24
2023-01-19T11:28:41.334Z,60.96
2023-01-19T11:31:34.895Z,60.54
2023-01-19T11:34:26.745Z,60.91
2023-01-19T11:37:28.450Z,61.27
2023-01-19T11:40:14.333Z,61.90
2023-01-19T11:42:58.074Z,61.49
2023-01-19T11:45:41.022Z,61.39
2023-01-19T11:48:31.505Z,61.28
2023-01-19T11:51:17.282Z,61.12
2023-01-19T11:54:03.653Z,60.61
2023-01-19T11:56:48.863Z,60.77
2023-01-19T11:59:31.640Z,60.19
2023-01-19T12:02:23.890Z,59.91
2023-01-19T12:05:13.629Z,60.33
2023-01-19T12:07:56.871Z,61.00
2023-01-19T12:10:44.714Z,61.27
2023-01-19T12:13:28.794Z,61.37
2023-01-19T12:16:16.060Z,60.69
2023-01-19T12:19:01.668Z,60.50
2023-01-19T12:21:48.476Z,60.26
2023-01-19T12:24:36.683Z,60.12
2023-01-19T12:27:27.846Z,60.32
2023-01-19T12:30:19.587Z,60.49
2023-01-19T12:33:25.235Z,60.50
2023-01-19T12:36:14.101Z,60.54
2023-01-19T12:39:02.323Z,59.78
2023-01-19T12:41:45.930Z,60.02
2023-01-19T12:44:34.084Z,60.14
2023-01-19T12:47:24.155Z,59.70
2023-01-19T12:50:14.235Z,60.18
2023-01-19T12:52:59.589Z,60.21
2023-01-19T12:55:46.781Z,59.59
2023-01-19T12:58:30.327Z,60.15
2023-01-19T13:01:15.416Z,59.76
2023-01-19T13:04:04.370Z,59.74
2023-01-19T13:07:17.866Z,59.52
2023-01-19T13:10:00.760Z,59.70
2023-01-19T13:13:17.611Z,59.11
2023-01-19T13:16:22.469Z,59.61
2023-01-19T13:19:17.001Z,59.90
2023-01-19T13:21:59.817Z,59.73
2023-01-19T13:25:08.577Z,60.02
2023-01-19T13:27:51.453Z,60.04
2023-01-19T13:30:37.585Z,59.83
2023-01-19T13:33:22.818Z,59.76
2023-01-19T13:36:21.451Z,59.75
2023-01-19T13:39:07.198Z,59.76
2023-01-19T13:41:53.229Z,60.05
2023-01-19T13:44:41.336Z,59.86
2023-01-19T13:47:31.483Z,59.93
2023-01-19T13:50:21.275Z,59.12
2023-01-19T13:53:05.997Z,59.82
2023-01-19T13:55:49.095Z,60.02
2023-01-19T13:58:32.410Z,59.93
2023-01-19T14:01:23.593Z,59.89
2023-01-19T14:04:26.263Z,60.11
2023-01-19T14:07:26.191Z,59.76
2023-01-19T14:10:15.291Z,60.02
2023-01-19T14:13:02.222Z,59.36
2023-01-19T14:15:46.909Z,59.88
2023-01-19T14:18:31.222Z,60.15
2023-01-19T14:21:16.590Z,60.38
2023-01-19T14:24:08.797Z,60.23
2023-01-19T14:26:53.949Z,60.46
2023-01-19T14:29:38.987Z,60.57
2023-01-19T14:32:24.062Z,60.45
2023-01-19T14:35:15.239Z,60.49
2023-01-19T14:37:59.458Z,60.67
2023-01-19T14:40:42.641Z,60.54
2023-01-19T14:43:28.530Z,60.87
2023-01-19T14:46:18.534Z,60.88
2023-01-19T14:49:04.284Z,60.89
2023-01-19T14:51:48.693Z,61.01
2023-01-19T14:54:35.931Z,60.52
2023-01-19T14:57:18.726Z,60.71
2023-01-19T15:00:01.670Z,60.81
2023-01-19T15:02:44.538Z,60.79
2023-01-19T15:05:27.524Z,61.01
2023-01-19T15:08:16.021Z,61.17
2023-01-19T15:11:04.622Z,61.31
2023-01-19T15:13:47.924Z,61.07
2023-01-19T15:16:34.147Z,61.31
2023-01-19T15:19:18.592Z,61.34
2023-01-19T15:22:01.359Z,61.32
2023-01-19T15:24:44.141Z,61.43
2023-01-19T15:27:29.099Z,61.72
2023-01-19T15:30:18.216Z,61.51
2023-01-19T15:33:01.909Z,61.44
2023-01-19T15:35:44.750Z,61.68
2023-01-19T15:38:27.759Z,61.61
2023-01-19T15:41:22.947Z,61.53
2023-01-19T15:44:09.146Z,61.59
2023-01-19T15:46:54.513Z,61.66
2023-01-19T15:49:38.109Z,61.74
2023-01-19T15:52:20.920Z,61.88
2023-01-19T15:55:03.787Z,62.03
2023-01-19T15:57:47.914Z,62.04
2023-01-19T16:00:33.349Z,62.42
2023-01-19T16:03:16.136Z,62.40
2023-01-19T16:06:01.580Z,62.67
2023-01-19T16:08:44.766Z,62.95
2023-01-19T16:11:28.477Z,62.81
2023-01-19T16:14:11.386Z,62.89
2023-01-19T16:16:55.531Z,63.06
2023-01-19T16:19:38.342Z,63.14
2023-01-19T16:22:21.145Z,63.35
2023-01-19T16:25:04.179Z,63.60
2023-01-19T16:27:46.978Z,63.73
2023-01-19T16:30:29.791Z,63.69
2023-01-19T16:33:14.065Z,63.90
2023-01-19T16:35:56.962Z,63.92
2023-01-19T16:38:39.732Z,63.99
2023-01-19T16:41:22.589Z,64.37
2023-01-19T16:44:06.690Z,64.45
2023-01-19T16:46:53.018Z,64.53
2023-01-19T16:49:37.172Z,64.51
2023-01-19T16:52:20.044Z,64.72
2023-01-19T16:55:06.941Z,64.82
2023-01-19T16:57:49.754Z,64.91
2023-01-19T17:00:32.526Z,64.86
2023-01-19T17:03:15.525Z,65.08
2023-01-19T17:05:59.698Z,65.11
2023-01-19T17:08:42.568Z,65.09
2023-01-19T17:11:27.452Z,65.23
2023-01-19T17:14:13.495Z,65.16
2023-01-19T17:16:56.354Z,65.09
2023-01-19T17:19:39.847Z,64.93
2023-01-19T17:22:24.038Z,65.02
2023-01-19T17:25:07.895Z,65.10
2023-01-19T17:27:50.692Z,65.00
2023-01-19T17:30:34.240Z,65.08
2023-01-19T17:33:17.092Z,65.13
2023-01-19T17:36:04.094Z,65.08
2023-01-19T17:38:48.296Z,65.10
2023-01-19T17:41:32.839Z,65.14
2023-01-19T17:44:15.631Z,65.17
2023-01-19T17:46:59.945Z,65.31
2023-01-19T17:49:42.671Z,65.31
2023-01-19T17:52:25.558Z,65.31
2023-01-19T17:55:10.878Z,65.27
2023-01-19T17:57:53.824Z,65.22
2023-01-19T18:00:36.608Z,65.32
2023-01-19T18:03:19.398Z,65.42
2023-01-19T18:06:02.283Z,65.39
2023-01-19T18:08:47.708Z,65.50
2023-01-19T18:11:31.959Z,65.37
2023-01-19T18:14:14.796Z,65.33
2023-01-19T18:16:57.572Z,65.45
2023-01-19T18:19:40.346Z,65.32
2023-01-19T18:22:23.302Z,65.42
2023-01-19T18:25:06.687Z,65.50
2023-01-19T18:27:50.841Z,65.47
2023-01-19T18:30:36.333Z,65.59
2023-01-19T18:33:19.180Z,65.78
2023-01-19T18:36:02.099Z,66.08
2023-01-19T18:38:47.745Z,65.78
2023-01-19T18:41:30.774Z,65.82
2023-01-19T18:44:15.014Z,65.80
2023-01-19T18:46:58.069Z,65.70
2023-01-19T18:49:40.852Z,65.72
2023-01-19T18:52:23.641Z,65.85
2023-01-19T18:55:07.426Z,66.00
2023-01-19T18:57:50.850Z,66.08
2023-01-19T19:00:35.000Z,66.08
2023-01-19T19:03:18.303Z,66.06
2023-01-19T19:06:04.033Z,66.18
2023-01-19T19:08:46.916Z,66.32
2023-01-19T19:11:29.991Z,66.10
2023-01-19T19:14:12.881Z,66.44
2023-01-19T19:16:57.039Z,66.67
2023-01-19T19:19:39.881Z,66.69
2023-01-19T19:22:25.353Z,66.72
2023-01-19T19:25:08.886Z,66.78
2023-01-19T19:27:52.549Z,66.73
2023-01-19T19:30:37.829Z,66.78
2023-01-19T19:33:22.082Z,66.73
2023-01-19T19:36:06.007Z,66.99
2023-01-19T19:38:49.623Z,66.98
2023-01-19T19:41:32.864Z,67.16
2023-01-19T19:44:15.888Z,67.23
2023-01-19T19:46:58.711Z,67.16
2023-01-19T19:49:42.947Z,67.12
2023-01-19T19:52:27.569Z,67.31
2023-01-19T19:55:12.708Z,67.26
2023-01-19T19:57:55.836Z,67.37
2023-01-19T20:00:39.257Z,67.38
2023-01-19T20:03:22.492Z,67.43
2023-01-19T20:06:08.146Z,67.36
2023-01-19T20:08:52.237Z,67.54
2023-01-19T20:11:35.908Z,67.47
2023-01-19T20:14:18.994Z,67.51
2023-01-19T20:17:01.965Z,67.53
2023-01-19T20:19:46.495Z,67.67
2023-01-19T20:22:30.817Z,67.72
2023-01-19T20:25:13.787Z,67.51
2023-01-19T20:27:59.136Z,67.52
2023-01-19T20:30:42.139Z,67.65
2023-01-19T20:33:24.937Z,67.51
2023-01-19T20:36:08.928Z,67.61
2023-01-19T20:38:54.113Z,67.69
2023-01-19T20:41:43.155Z,67.65
2023-01-19T20:44:27.145Z,67.65
2023-01-19T20:47:10.321Z,67.83
2023-01-19T20:49:53.100Z,67.76
2023-01-19T20:52:36.594Z,67.78
2023-01-19T20:55:20.735Z,67.87
2023-01-19T20:58:03.638Z,67.83
2023-01-19T21:00:46.641Z,67.87
2023-01-19T21:03:30.098Z,67.81
2023-01-19T21:06:15.387Z,67.82
2023-01-19T21:08:58.477Z,67.80
2023-01-19T21:11:42.755Z,67.93
2023-01-19T21:14:25.749Z,67.87
2023-01-19T21:17:08.867Z,67.91
2023-01-19T21:19:51.662Z,67.82
2023-01-19T21:22:34.473Z,67.89
2023-01-19T21:25:17.586Z,67.82
2023-01-19T21:28:01.770Z,67.89
2023-01-19T21:30:44.681Z,67.92
2023-01-19T21:33:27.502Z,67.91
2023-01-19T21:36:11.795Z,67.99
2023-01-19T21:38:55.649Z,67.90
2023-01-19T21:41:40.246Z,68.10
2023-01-19T21:44:24.381Z,67.92
2023-01-19T21:47:09.153Z,67.83
2023-01-19T21:49:52.085Z,67.94
2023-01-19T21:52:34.910Z,67.95
2023-01-19T21:55:18.381Z,67.96
2023-01-19T21:58:01.301Z,67.72
2023-01-19T22:00:45.506Z,67.68
2023-01-19T22:03:28.479Z,67.84
2023-01-19T22:06:14.575Z,67.71
2023-01-19T22:08:58.414Z,67.58
2023-01-19T22:11:41.264Z,67.61
2023-01-19T22:14:24.039Z,67.61
2023-01-19T22:17:08.180Z,67.43
2023-01-19T22:19:50.947Z,67.56
2023-01-19T22:22:34.230Z,67.76
2023-01-19T22:25:17.243Z,67.79
2023-01-19T22:28:00.055Z,67.77
2023-01-19T22:30:43.029Z,68.00
2023-01-19T22:33:29.099Z,68.02
2023-01-19T22:36:14.744Z,68.20
2023-01-19T22:38:59.045Z,68.33
2023-01-19T22:41:44.404Z,68.41
2023-01-19T22:44:27.366Z,68.60
2023-01-19T22:47:10.214Z,68.71
2023-01-19T22:49:54.398Z,68.85
2023-01-19T22:52:37.219Z,68.84
2023-01-19T22:55:19.993Z,68.80
2023-01-19T22:58:02.952Z,68.72
2023-01-19T23:00:45.791Z,68.85
2023-01-19T23:03:30.256Z,68.68
2023-01-19T23:06:15.751Z,68.80
2023-01-19T23:09:01.590Z,68.93
2023-01-19T23:11:48.503Z,68.90
2023-01-19T23:14:31.305Z,69.15
2023-01-19T23:17:14.145Z,68.96
2023-01-19T23:19:56.945Z,69.02
2023-01-19T23:22:41.154Z,69.26
2023-01-19T23:25:23.928Z,69.39
2023-01-19T23:28:06.793Z,69.36
2023-01-19T23:30:49.600Z,69.36
2023-01-19T23:33:32.469Z,69.32
2023-01-19T23:36:16.671Z,69.54
2023-01-19T23:39:04.760Z,69.86
2023-01-19T23:41:48.719Z,69.40
2023-01-19T23:44:31.594Z,69.52
2023-01-19T23:47:14.392Z,69.33
2023-01-19T23:49:57.205Z,69.50
2023-01-19T23:52:40.046Z,69.54
2023-01-19T23:55:24.192Z,69.54
2023-01-19T23:58:06.992Z,69.66
